Time;durP1;ratioP1;P1;durP2;ratioP2;P2;SDS_P1;SDS_P2;PMS_P1;PMS_P2;Temp;Humidity;BMP_temperature;BMP_pressure;BME280_temperature;BME280_humidity;BME280_pressure;Samples;Min_cycle;Max_cycle;Signal;HPM_P1;HPM_P2
2023/02/09 00:00:04;;;;;;;2.50;2.30;;;-0.50;99.90;;;;;;6119570;23;20835;-70
2023/02/09 00:02:32;;;;;;;4.53;2.63;;;-0.40;99.90;;;;;;6119092;23;20427;-70
2023/02/09 00:04:59;;;;;;;3.50;2.70;;;-0.40;99.90;;;;;;6120537;23;20420;-70
2023/02/09 00:07:26;;;;;;;9.27;4.17;;;-0.30;99.90;;;;;;6121415;23;20502;-70
2023/02/09 00:09:54;;;;;;;3.93;3.20;;;-0.20;99.90;;;;;;6115754;23;20424;-70
2023/02/09 00:15:07;;;;;;;5.50;3.87;;;0.10;99.90;;;;;;6118021;23;20877;-69
2023/02/09 00:17:36;;;;;;;8.97;4.93;;;0.20;99.90;;;;;;6123022;23;20812;-70
2023/02/09 00:20:03;;;;;;;6.80;3.50;;;0.30;99.90;;;;;;6120545;23;20914;-70
2023/02/09 00:22:30;;;;;;;3.97;3.07;;;0.20;99.90;;;;;;6120023;23;20486;-69
2023/02/09 00:24:58;;;;;;;4.40;3.27;;;0.20;99.90;;;;;;6119098;23;20708;-71
2023/02/09 00:27:26;;;;;;;11.53;3.77;;;0.20;99.90;;;;;;6116253;23;20407;-71
2023/02/09 00:29:52;;;;;;;9.43;4.63;;;0.20;99.90;;;;;;6092151;23;20385;-71
2023/02/09 00:32:19;;;;;;;3.20;2.80;;;0.20;99.90;;;;;;6119640;23;20437;-69
2023/02/09 00:34:46;;;;;;;7.03;4.63;;;0.40;99.90;;;;;;6119412;23;20433;-70
2023/02/09 00:37:13;;;;;;;3.13;2.93;;;0.30;99.90;;;;;;6118260;23;20976;-70
2023/02/09 00:39:40;;;;;;;7.90;3.37;;;0.30;99.90;;;;;;6119523;23;20454;-70
2023/02/09 00:42:10;;;;;;;9.43;3.70;;;0.30;99.90;;;;;;6120000;23;20967;-70
2023/02/09 00:44:39;;;;;;;4.47;3.57;;;0.30;99.90;;;;;;6119443;23;20421;-70
2023/02/09 00:47:07;;;;;;;3.67;3.33;;;0.30;99.90;;;;;;6115383;23;20440;-70
2023/02/09 00:49:35;;;;;;;5.03;3.47;;;0.30;99.90;;;;;;6119800;23;20827;-70
2023/02/09 00:52:02;;;;;;;5.47;3.17;;;0.30;99.90;;;;;;6121824;23;20431;-72
2023/02/09 00:54:29;;;;;;;5.00;2.97;;;0.10;99.90;;;;;;6117966;23;20447;-69
2023/02/09 00:56:57;;;;;;;3.67;2.33;;;0.10;99.90;;;;;;6122644;23;20409;-69
2023/02/09 00:59:26;;;;;;;4.67;2.90;;;0.10;99.90;;;;;;6122212;23;20396;-70
2023/02/09 01:01:53;;;;;;;2.33;2.13;;;0.20;99.90;;;;;;6123448;23;20483;-71
2023/02/09 01:04:20;;;;;;;5.00;2.77;;;0.10;99.90;;;;;;6124448;23;20506;-70
2023/02/09 01:06:47;;;;;;;8.50;3.10;;;0.10;99.90;;;;;;6122301;23;21189;-70
2023/02/09 01:09:14;;;;;;;5.33;4.60;;;0.10;99.90;;;;;;6123474;23;20420;-70
2023/02/09 01:11:41;;;;;;;9.73;5.33;;;0.10;99.90;;;;;;6118342;23;20434;-70
2023/02/09 01:14:09;;;;;;;4.70;3.23;;;0.10;99.90;;;;;;6115150;23;20496;-70
2023/02/09 01:16:37;;;;;;;3.90;3.03;;;0.20;99.90;;;;;;6119421;23;20671;-69
2023/02/09 01:19:04;;;;;;;3.43;2.30;;;0.10;99.90;;;;;;6119990;23;20902;-71
2023/02/09 01:21:32;;;;;;;5.00;3.33;;;0.10;99.90;;;;;;6117467;23;20512;-71
2023/02/09 01:23:59;;;;;;;3.47;2.40;;;0.20;99.90;;;;;;6120013;23;20430;-70
2023/02/09 01:26:26;;;;;;;4.93;4.33;;;0.20;99.90;;;;;;6113030;23;20412;-70
2023/02/09 01:28:55;;;;;;;3.60;2.20;;;0.20;99.90;;;;;;6119489;23;20491;-68
2023/02/09 01:31:25;;;;;;;3.80;2.97;;;0.20;99.90;;;;;;6064436;23;21003;-70
2023/02/09 01:33:55;;;;;;;5.90;3.07;;;0.20;99.90;;;;;;6114708;23;20455;-69
2023/02/09 01:36:22;;;;;;;5.27;2.87;;;0.20;99.90;;;;;;6123865;23;21245;-69
2023/02/09 01:38:49;;;;;;;12.90;4.83;;;0.20;99.90;;;;;;6119367;23;20498;-69
2023/02/09 01:41:16;;;;;;;5.33;3.43;;;0.20;99.90;;;;;;6116305;23;20746;-69
2023/02/09 01:44:01;;;;;;;6.43;3.43;;;0.40;99.90;;;;;;6112685;23;21319;-68
2023/02/09 01:46:30;;;;;;;3.23;2.30;;;0.40;99.90;;;;;;6114931;23;20474;-69
2023/02/09 01:49:04;;;;;;;5.10;3.47;;;0.30;99.90;;;;;;6117165;23;20793;-70
2023/02/09 01:51:36;;;;;;;2.67;2.00;;;0.40;99.90;;;;;;6117938;23;20430;-69
2023/02/09 01:54:09;;;;;;;10.00;3.60;;;0.40;99.90;;;;;;6118851;23;20392;-69
2023/02/09 01:56:39;;;;;;;6.47;2.90;;;0.40;99.90;;;;;;6116665;23;20393;-69
2023/02/09 01:59:06;;;;;;;2.87;2.57;;;0.40;99.90;;;;;;6119484;23;20473;-70
2023/02/09 02:01:33;;;;;;;3.87;2.57;;;0.40;99.90;;;;;;6119566;23;20514;-69
2023/02/09 02:04:02;;;;;;;6.10;2.90;;;0.30;99.90;;;;;;6117339;23;20439;-69
2023/02/09 02:06:30;;;;;;;5.70;3.30;;;0.20;99.90;;;;;;6117640;23;20392;-68
2023/02/09 02:08:59;;;;;;;5.80;3.97;;;0.20;99.90;;;;;;6089126;23;20408;-69
2023/02/09 02:11:28;;;;;;;7.70;3.23;;;0.30;99.90;;;;;;6117525;23;20468;-69
2023/02/09 02:13:55;;;;;;;4.60;2.50;;;0.40;99.90;;;;;;6116921;23;20428;-69
2023/02/09 02:16:46;;;;;;;4.90;2.90;;;0.40;99.90;;;;;;6121925;23;20451;-70
2023/02/09 02:19:52;;;;;;;3.33;3.03;;;0.40;99.90;;;;;;6119807;23;20396;-69
2023/02/09 02:22:49;;;;;;;4.20;3.10;;;0.40;99.90;;;;;;6080648;23;20522;-70
2023/02/09 02:25:47;;;;;;;5.37;2.90;;;0.30;99.90;;;;;;6115519;23;20805;-69
2023/02/09 02:28:47;;;;;;;3.70;3.33;;;0.40;99.90;;;;;;6119841;23;20490;-69
2023/02/09 02:31:32;;;;;;;6.07;3.40;;;0.30;99.90;;;;;;6107337;23;20464;-70
2023/02/09 02:34:05;;;;;;;7.50;3.17;;;0.30;99.90;;;;;;6116607;23;20694;-70
2023/02/09 02:36:37;;;;;;;3.00;2.60;;;0.20;99.90;;;;;;6119847;23;20874;-70
2023/02/09 02:39:21;;;;;;;2.57;2.30;;;0.20;99.90;;;;;;6117910;23;20397;-70
2023/02/09 02:44:41;;;;;;;7.33;4.03;;;0.20;99.90;;;;;;6116103;23;20528;-70
2023/02/09 02:47:13;;;;;;;5.63;3.37;;;0.20;99.90;;;;;;6117740;23;20403;-70
2023/02/09 02:49:45;;;;;;;6.50;3.10;;;0.10;99.90;;;;;;6116219;23;20886;-69
2023/02/09 02:52:14;;;;;;;3.93;2.80;;;0.00;99.90;;;;;;6117673;23;20946;-70
2023/02/09 02:54:45;;;;;;;7.77;4.40;;;0.00;99.90;;;;;;6125032;23;20893;-70
2023/02/09 02:57:17;;;;;;;5.23;2.63;;;0.00;99.90;;;;;;6119952;23;20480;-70
2023/02/09 02:59:47;;;;;;;3.40;2.57;;;0.00;99.90;;;;;;6116257;23;20389;-70
2023/02/09 03:02:19;;;;;;;14.63;4.10;;;0.10;99.90;;;;;;6119987;23;20802;-70
2023/02/09 03:04:51;;;;;;;7.93;4.03;;;0.20;99.90;;;;;;6118286;23;20396;-70
2023/02/09 03:07:19;;;;;;;3.17;2.70;;;0.20;99.90;;;;;;6119911;23;20394;-69
2023/02/09 03:09:49;;;;;;;6.70;2.90;;;0.30;99.90;;;;;;6121219;23;20484;-70
2023/02/09 03:12:24;;;;;;;4.10;2.73;;;0.20;99.90;;;;;;6116657;23;20833;-70
2023/02/09 03:15:11;;;;;;;4.23;2.80;;;0.20;99.90;;;;;;6117033;23;20785;-69
2023/02/09 03:21:06;;;;;;;7.93;4.60;;;0.50;99.90;;;;;;6116162;23;20405;-71
2023/02/09 03:23:37;;;;;;;13.20;6.87;;;0.60;99.90;;;;;;6118953;23;20471;-70
2023/02/09 03:26:09;;;;;;;6.80;3.90;;;0.60;99.90;;;;;;6116072;23;20461;-69
2023/02/09 03:28:39;;;;;;;9.33;4.17;;;0.70;99.90;;;;;;6117962;23;20827;-70
2023/02/09 03:31:07;;;;;;;5.30;3.30;;;0.60;99.90;;;;;;6119158;23;20460;-71
2023/02/09 03:33:38;;;;;;;6.60;3.67;;;0.50;99.90;;;;;;6123935;23;20984;-70
2023/02/09 03:36:09;;;;;;;9.43;4.40;;;0.50;99.90;;;;;;6116574;23;20460;-70
2023/02/09 03:38:36;;;;;;;6.80;3.63;;;0.80;99.90;;;;;;6120949;23;20444;-71
2023/02/09 03:41:03;;;;;;;3.23;2.73;;;0.80;99.90;;;;;;6116726;23;20433;-70
2023/02/09 03:46:11;;;;;;;3.70;2.53;;;0.90;99.90;;;;;;6116967;23;20441;-71
2023/02/09 03:48:38;;;;;;;5.90;3.20;;;0.90;99.90;;;;;;6115926;23;20440;-70
2023/02/09 03:51:09;;;;;;;6.50;2.80;;;0.90;99.90;;;;;;6120784;23;20464;-71
2023/02/09 03:53:37;;;;;;;8.57;4.37;;;0.90;99.90;;;;;;6120033;23;20730;-71
2023/02/09 03:56:06;;;;;;;6.20;5.00;;;0.90;99.90;;;;;;6117721;23;20492;-70
2023/02/09 03:58:34;;;;;;;7.60;3.20;;;1.00;99.90;;;;;;6118807;23;20441;-70
2023/02/09 04:01:06;;;;;;;9.73;2.93;;;0.90;99.90;;;;;;6117309;23;20437;-71
2023/02/09 04:03:33;;;;;;;7.40;3.77;;;0.90;99.90;;;;;;6116362;23;20544;-69
2023/02/09 04:06:00;;;;;;;4.63;2.87;;;0.90;99.90;;;;;;6117469;23;20472;-71
2023/02/09 04:08:29;;;;;;;5.63;4.47;;;0.90;99.90;;;;;;6115566;23;20517;-70
2023/02/09 04:10:57;;;;;;;7.97;4.50;;;0.90;99.90;;;;;;6122245;23;20466;-71
2023/02/09 04:13:24;;;;;;;6.27;3.20;;;0.80;99.90;;;;;;6116291;23;20403;-70
2023/02/09 04:15:52;;;;;;;8.60;6.03;;;0.80;99.90;;;;;;6110468;23;20497;-69
2023/02/09 04:18:21;;;;;;;11.30;3.63;;;0.90;99.90;;;;;;6115610;23;20413;-71
2023/02/09 04:20:48;;;;;;;8.80;3.67;;;1.00;99.90;;;;;;6118654;23;20972;-70
2023/02/09 04:23:15;;;;;;;5.50;3.30;;;0.90;99.90;;;;;;6092209;23;20561;-71
2023/02/09 04:25:43;;;;;;;7.27;4.83;;;0.70;99.90;;;;;;6119551;23;20532;-70
2023/02/09 04:28:10;;;;;;;8.73;4.60;;;0.70;99.90;;;;;;6117666;23;20483;-69
2023/02/09 04:30:37;;;;;;;5.13;3.53;;;0.70;99.90;;;;;;6116234;23;20419;-69
2023/02/09 04:33:04;;;;;;;9.50;4.17;;;0.90;99.90;;;;;;6120420;23;20419;-70
2023/02/09 04:35:31;;;;;;;6.07;4.37;;;0.90;99.90;;;;;;6119065;23;20413;-70
2023/02/09 04:37:58;;;;;;;3.97;3.57;;;0.90;99.90;;;;;;6122699;23;20495;-70
2023/02/09 04:40:24;;;;;;;3.10;2.73;;;0.80;99.90;;;;;;6120171;23;20499;-71
2023/02/09 04:42:53;;;;;;;11.73;5.50;;;0.80;99.90;;;;;;6110296;23;20961;-70
2023/02/09 04:45:20;;;;;;;6.43;3.07;;;0.70;99.90;;;;;;6116139;23;20748;-70
2023/02/09 04:47:47;;;;;;;8.33;3.80;;;0.60;99.90;;;;;;6119220;23;20786;-70
2023/02/09 04:50:14;;;;;;;6.13;3.53;;;0.60;99.90;;;;;;6121041;23;20413;-70
2023/02/09 04:52:42;;;;;;;4.60;2.77;;;0.60;99.90;;;;;;6120943;23;20760;-70
2023/02/09 04:55:08;;;;;;;5.00;3.67;;;0.60;99.90;;;;;;6122500;23;20414;-70
2023/02/09 05:00:21;;;;;;;8.47;4.70;;;0.70;99.90;;;;;;6122302;23;20456;-70
2023/02/09 05:02:48;;;;;;;4.17;3.77;;;0.70;99.90;;;;;;6122423;23;20516;-69
2023/02/09 05:05:15;;;;;;;7.00;4.07;;;0.60;99.90;;;;;;6122235;23;20596;-69
2023/02/09 05:07:42;;;;;;;4.30;3.60;;;0.60;99.90;;;;;;6112930;23;20421;-70
2023/02/09 05:10:09;;;;;;;15.00;4.20;;;0.50;99.90;;;;;;6117383;23;20388;-70
2023/02/09 05:12:36;;;;;;;6.73;3.77;;;0.60;99.90;;;;;;6109923;23;20432;-69
2023/02/09 05:15:03;;;;;;;8.90;4.50;;;0.60;99.90;;;;;;6116547;23;20420;-70
2023/02/09 05:17:32;;;;;;;7.27;3.40;;;0.50;99.90;;;;;;6117704;23;20539;-70
2023/02/09 05:20:01;;;;;;;19.30;5.20;;;0.50;99.90;;;;;;6119221;23;20958;-70
2023/02/09 05:22:28;;;;;;;7.07;4.40;;;0.40;99.90;;;;;;6122449;23;20468;-70
2023/02/09 05:24:55;;;;;;;5.70;3.40;;;0.50;99.90;;;;;;6118125;23;20465;-69
2023/02/09 05:27:21;;;;;;;8.27;6.13;;;0.50;99.90;;;;;;6124752;23;20415;-69
2023/02/09 05:29:48;;;;;;;14.57;8.53;;;0.50;99.90;;;;;;6114339;23;20489;-69
2023/02/09 05:32:18;;;;;;;12.97;5.57;;;0.40;99.90;;;;;;6108680;23;20437;-69
2023/02/09 05:34:46;;;;;;;10.33;4.93;;;0.40;99.90;;;;;;6109779;23;20394;-70
2023/02/09 05:37:13;;;;;;;7.73;5.23;;;0.50;99.90;;;;;;6118944;23;21229;-69
2023/02/09 05:39:40;;;;;;;9.27;3.53;;;0.50;99.90;;;;;;6122029;23;20832;-70
2023/02/09 05:42:16;;;;;;;19.10;6.40;;;0.60;99.90;;;;;;6118719;23;20440;-70
2023/02/09 05:44:44;;;;;;;3.70;2.80;;;0.70;99.90;;;;;;6117815;23;20508;-70
2023/02/09 05:47:11;;;;;;;4.80;3.60;;;0.70;99.90;;;;;;6120983;23;20419;-70
2023/02/09 05:49:39;;;;;;;9.00;4.00;;;0.70;99.90;;;;;;6123361;23;20404;-70
2023/02/09 05:52:09;;;;;;;4.17;2.63;;;0.80;99.90;;;;;;6068210;23;20513;-71
2023/02/09 05:54:36;;;;;;;3.77;3.47;;;0.90;99.90;;;;;;6119370;23;20369;-69
2023/02/09 05:57:04;;;;;;;5.90;3.37;;;1.00;99.90;;;;;;6119625;23;20487;-70
2023/02/09 05:59:31;;;;;;;5.37;2.90;;;0.80;99.90;;;;;;6118768;23;20747;-69
2023/02/09 06:02:01;;;;;;;7.00;4.87;;;0.60;99.90;;;;;;6090724;23;20430;-69
2023/02/09 06:04:28;;;;;;;8.83;5.50;;;0.50;99.90;;;;;;6123747;23;20539;-70
2023/02/09 06:06:56;;;;;;;10.97;5.00;;;0.40;99.90;;;;;;6125004;23;20419;-70
2023/02/09 06:09:24;;;;;;;6.47;4.03;;;0.40;99.90;;;;;;6120421;23;20758;-70
2023/02/09 06:11:51;;;;;;;5.57;3.43;;;0.50;99.90;;;;;;6118808;23;21018;-71
2023/02/09 06:14:19;;;;;;;4.60;3.10;;;0.50;99.90;;;;;;6121669;23;20441;-70
2023/02/09 06:16:46;;;;;;;13.33;4.90;;;0.50;99.90;;;;;;6066919;23;20947;-69
2023/02/09 06:19:15;;;;;;;5.83;3.57;;;0.50;99.90;;;;;;6119618;23;20417;-70
2023/02/09 06:21:44;;;;;;;4.50;4.10;;;0.50;99.90;;;;;;6120483;23;20814;-70
2023/02/09 06:24:12;;;;;;;7.43;3.43;;;0.50;99.90;;;;;;6116291;23;20420;-70
2023/02/09 06:26:40;;;;;;;10.63;5.47;;;0.50;99.90;;;;;;6120970;23;20472;-70
2023/02/09 06:29:08;;;;;;;5.23;3.13;;;0.40;99.90;;;;;;6119106;23;20495;-69
2023/02/09 06:31:35;;;;;;;6.70;4.97;;;0.50;99.90;;;;;;6120585;23;20491;-69
2023/02/09 06:34:04;;;;;;;6.43;4.07;;;0.40;99.90;;;;;;6123837;23;20442;-69
2023/02/09 06:36:31;;;;;;;11.97;5.07;;;0.50;99.90;;;;;;6116327;23;20783;-70
2023/02/09 06:38:58;;;;;;;12.97;5.90;;;0.60;99.90;;;;;;6064381;23;20420;-69
2023/02/09 06:41:25;;;;;;;12.13;5.27;;;0.60;99.90;;;;;;6119389;23;20774;-70
2023/02/09 06:43:54;;;;;;;10.23;4.97;;;0.70;99.90;;;;;;6122927;23;20440;-70
2023/02/09 06:46:21;;;;;;;9.53;4.97;;;0.80;99.90;;;;;;6119779;23;20415;-69
2023/02/09 06:48:47;;;;;;;9.60;3.87;;;0.70;99.90;;;;;;6114500;23;20635;-70
2023/02/09 06:51:16;;;;;;;6.17;4.50;;;0.80;99.90;;;;;;6120238;23;20551;-70
2023/02/09 06:53:43;;;;;;;5.17;2.87;;;0.90;99.90;;;;;;6121692;23;20792;-71
2023/02/09 06:56:12;;;;;;;4.20;3.80;;;0.60;99.90;;;;;;6122386;23;20414;-71
2023/02/09 06:58:42;;;;;;;6.60;2.43;;;0.70;99.90;;;;;;6120616;23;20497;-71
2023/02/09 07:01:14;;;;;;;10.00;4.73;;;0.70;99.90;;;;;;6122684;23;20441;-70
2023/02/09 07:03:41;;;;;;;8.50;3.60;;;0.70;99.90;;;;;;6093253;23;20450;-70
2023/02/09 07:06:10;;;;;;;12.30;5.33;;;0.60;99.90;;;;;;6118801;23;20468;-71
2023/02/09 07:08:38;;;;;;;5.23;3.30;;;0.60;99.90;;;;;;6121346;23;20429;-70
2023/02/09 07:11:07;;;;;;;15.33;6.53;;;0.70;99.90;;;;;;6119449;23;20493;-70
2023/02/09 07:13:34;;;;;;;6.63;5.00;;;0.80;99.90;;;;;;6121109;23;20719;-70
2023/02/09 07:16:02;;;;;;;4.33;2.93;;;0.90;99.90;;;;;;6118217;23;20446;-70
2023/02/09 07:18:31;;;;;;;5.67;4.93;;;1.10;99.90;;;;;;6117144;23;20418;-69
2023/02/09 07:21:01;;;;;;;20.23;5.43;;;1.10;99.90;;;;;;6119780;23;20405;-71
2023/02/09 07:23:28;;;;;;;10.40;4.70;;;1.10;99.90;;;;;;6125680;23;20505;-70
2023/02/09 07:25:55;;;;;;;5.30;3.70;;;1.20;99.90;;;;;;6120694;23;20484;-70
2023/02/09 07:28:22;;;;;;;9.43;4.77;;;1.40;99.90;;;;;;6116446;23;20384;-70
2023/02/09 07:30:50;;;;;;;9.07;4.87;;;1.60;99.90;;;;;;6120416;23;20484;-71
2023/02/09 07:33:18;;;;;;;10.90;4.87;;;1.70;99.90;;;;;;6117988;23;20419;-70
2023/02/09 07:35:47;;;;;;;4.87;3.03;;;2.00;99.90;;;;;;6115569;23;20389;-70
2023/02/09 07:38:15;;;;;;;16.33;4.33;;;2.10;99.90;;;;;;6120690;23;20413;-70
2023/02/09 07:40:44;;;;;;;12.90;5.33;;;2.00;99.90;;;;;;6116644;23;20416;-71
2023/02/09 07:43:13;;;;;;;7.23;4.57;;;2.00;99.90;;;;;;6119526;23;20389;-71
2023/02/09 07:45:41;;;;;;;15.40;4.90;;;2.10;99.90;;;;;;6119639;23;20437;-70
2023/02/09 07:48:11;;;;;;;7.90;5.10;;;2.10;99.90;;;;;;6119083;23;20414;-69
2023/02/09 07:50:38;;;;;;;14.70;7.10;;;2.20;99.90;;;;;;6119201;23;20961;-70
2023/02/09 07:53:06;;;;;;;6.57;4.20;;;2.30;99.90;;;;;;6119525;23;20655;-70
2023/02/09 07:55:34;;;;;;;6.13;4.27;;;2.40;99.90;;;;;;6117740;23;20482;-71
2023/02/09 07:58:01;;;;;;;10.97;4.33;;;2.60;99.90;;;;;;6120307;23;20431;-70
2023/02/09 08:00:28;;;;;;;12.20;4.73;;;2.70;99.90;;;;;;6118853;23;20517;-70
2023/02/09 08:02:55;;;;;;;6.63;4.90;;;2.80;99.90;;;;;;6122864;23;20440;-71
2023/02/09 08:05:29;;;;;;;9.20;5.80;;;2.80;99.90;;;;;;6120349;23;21049;-70
2023/02/09 08:07:56;;;;;;;12.60;5.80;;;2.80;99.90;;;;;;6119308;23;20368;-71
2023/02/09 08:10:25;;;;;;;10.30;5.80;;;2.70;99.90;;;;;;6119847;23;20399;-71
2023/02/09 08:12:59;;;;;;;4.10;2.53;;;2.90;99.90;;;;;;6129612;23;20907;-71
2023/02/09 08:15:31;;;;;;;6.10;3.80;;;3.00;99.90;;;;;;6119482;23;20810;-70
2023/02/09 08:18:02;;;;;;;7.20;4.63;;;3.10;99.90;;;;;;6120375;23;20365;-70
2023/02/09 08:20:30;;;;;;;10.33;6.53;;;3.10;99.90;;;;;;6119580;23;20861;-70
2023/02/09 08:23:03;;;;;;;9.20;6.10;;;3.30;99.90;;;;;;6117995;23;20415;-70
2023/02/09 08:25:33;;;;;;;7.77;4.33;;;3.30;99.90;;;;;;6121058;23;20453;-70
2023/02/09 08:28:02;;;;;;;8.77;4.80;;;3.40;99.90;;;;;;6119582;23;20426;-69
2023/02/09 08:30:30;;;;;;;7.10;4.00;;;3.40;99.90;;;;;;6119399;23;20816;-70
2023/02/09 08:32:57;;;;;;;8.70;3.93;;;3.50;99.90;;;;;;6119901;23;20403;-70
2023/02/09 08:35:23;;;;;;;10.63;5.07;;;3.80;99.90;;;;;;6120235;23;20875;-70
2023/02/09 08:37:50;;;;;;;13.03;4.13;;;4.00;99.90;;;;;;6118002;23;20436;-70
2023/02/09 08:40:18;;;;;;;8.07;4.53;;;4.40;99.90;;;;;;6122872;23;20456;-71
2023/02/09 08:42:46;;;;;;;13.30;5.97;;;4.80;99.90;;;;;;6117659;23;20437;-70
2023/02/09 08:45:13;;;;;;;10.23;4.33;;;5.00;99.90;;;;;;6113864;23;20546;-70
2023/02/09 08:47:40;;;;;;;9.73;4.03;;;5.20;99.90;;;;;;6120184;23;20731;-70
2023/02/09 08:50:07;;;;;;;10.20;5.23;;;5.20;99.50;;;;;;6115913;23;20756;-70
2023/02/09 08:52:35;;;;;;;6.80;4.70;;;5.10;98.70;;;;;;6119361;23;20512;-70
2023/02/09 08:55:02;;;;;;;7.43;4.77;;;5.00;98.70;;;;;;6120110;23;20905;-70
2023/02/09 08:57:30;;;;;;;8.73;4.70;;;5.00;98.80;;;;;;6121045;23;20388;-70
2023/02/09 08:59:59;;;;;;;8.10;5.80;;;5.20;98.60;;;;;;6120140;23;20502;-69
2023/02/09 09:02:26;;;;;;;9.47;6.83;;;5.20;98.00;;;;;;6121321;23;20473;-70
2023/02/09 09:04:53;;;;;;;9.80;5.37;;;5.10;98.20;;;;;;6120875;23;20418;-70
2023/02/09 09:07:20;;;;;;;13.77;6.60;;;5.40;98.60;;;;;;6118772;23;20473;-69
2023/02/09 09:09:46;;;;;;;11.83;5.80;;;5.90;98.70;;;;;;6119724;23;20474;-70
2023/02/09 09:12:13;;;;;;;9.60;5.93;;;6.50;97.70;;;;;;6119557;23;20472;-72
2023/02/09 09:14:43;;;;;;;10.93;5.80;;;7.00;95.20;;;;;;6119793;23;20458;-69
2023/02/09 09:17:11;;;;;;;6.17;4.43;;;7.30;93.70;;;;;;6122014;23;20480;-71
2023/02/09 09:19:39;;;;;;;7.07;5.27;;;7.60;93.50;;;;;;6122532;23;20407;-68
2023/02/09 09:22:05;;;;;;;11.33;6.50;;;7.90;93.30;;;;;;6118827;23;20413;-69
2023/02/09 09:24:39;;;;;;;10.53;5.77;;;8.20;92.40;;;;;;6122545;23;20453;-69
2023/02/09 09:27:06;;;;;;;9.87;5.77;;;8.20;91.10;;;;;;6121298;23;20421;-69
2023/02/09 09:29:34;;;;;;;9.70;4.60;;;7.90;90.10;;;;;;6122418;23;20553;-68
2023/02/09 09:32:01;;;;;;;9.20;5.50;;;7.60;88.60;;;;;;6119417;23;20433;-70
2023/02/09 09:34:29;;;;;;;6.27;3.90;;;7.10;89.60;;;;;;6117537;23;20389;-70
2023/02/09 09:36:56;;;;;;;12.57;7.13;;;6.90;89.70;;;;;;6120108;23;20831;-70
2023/02/09 09:39:25;;;;;;;7.30;5.80;;;7.10;90.90;;;;;;6120974;23;20492;-70
2023/02/09 09:41:59;;;;;;;7.20;4.73;;;7.70;90.10;;;;;;6116890;23;20876;-70
2023/02/09 09:44:32;;;;;;;8.33;4.70;;;8.10;86.10;;;;;;6116914;23;20762;-70
2023/02/09 09:47:06;;;;;;;11.63;5.30;;;8.70;84.90;;;;;;6122116;23;20370;-70
2023/02/09 09:49:37;;;;;;;11.97;5.40;;;9.40;82.10;;;;;;6120225;23;20775;-70
2023/02/09 09:52:08;;;;;;;14.37;6.53;;;9.50;77.20;;;;;;6118742;23;20438;-71
2023/02/09 09:54:36;;;;;;;7.53;4.30;;;9.20;77.40;;;;;;6121355;23;20382;-70
2023/02/09 09:57:12;;;;;;;10.73;6.40;;;9.00;76.60;;;;;;6121644;23;20431;-69
2023/02/09 09:59:42;;;;;;;9.20;4.80;;;8.80;77.90;;;;;;6120090;23;20478;-69
2023/02/09 10:02:19;;;;;;;8.40;4.40;;;8.90;77.10;;;;;;6120713;23;20397;-70
2023/02/09 10:04:48;;;;;;;8.77;4.53;;;8.60;75.50;;;;;;6122553;23;20405;-70
2023/02/09 10:07:21;;;;;;;7.43;4.07;;;8.80;76.10;;;;;;6117905;23;20394;-69
2023/02/09 10:09:53;;;;;;;5.90;4.07;;;8.50;75.90;;;;;;6120234;23;20396;-70
2023/02/09 10:12:35;;;;;;;5.13;4.50;;;8.80;76.10;;;;;;6121841;23;20398;-70
2023/02/09 10:15:18;;;;;;;9.50;6.67;;;9.10;73.90;;;;;;6120102;23;20395;-69
2023/02/09 10:17:48;;;;;;;10.30;5.13;;;9.30;74.80;;;;;;6118944;23;20498;-69
2023/02/09 10:20:17;;;;;;;5.53;4.27;;;9.60;72.80;;;;;;6119101;23;20384;-70
2023/02/09 10:22:44;;;;;;;11.67;5.13;;;9.40;69.80;;;;;;6119782;23;20820;-70
2023/02/09 10:25:37;;;;;;;8.43;4.40;;;9.30;71.60;;;;;;6119912;23;20428;-69
2023/02/09 10:28:05;;;;;;;6.83;4.37;;;9.50;70.40;;;;;;6119705;23;20581;-69
2023/02/09 10:30:32;;;;;;;17.93;6.00;;;9.40;70.60;;;;;;6121272;23;20390;-69
2023/02/09 10:33:01;;;;;;;10.80;6.43;;;9.70;70.80;;;;;;6117854;23;20742;-70
2023/02/09 10:35:41;;;;;;;10.93;5.40;;;9.70;70.10;;;;;;6071876;23;20460;-69
2023/02/09 10:38:16;;;;;;;8.57;4.20;;;9.80;69.20;;;;;;6120868;23;20425;-69
2023/02/09 10:40:46;;;;;;;6.43;4.67;;;9.80;67.20;;;;;;6121585;23;20395;-70
2023/02/09 10:43:22;;;;;;;4.90;3.47;;;9.80;66.80;;;;;;6121179;23;20441;-70
2023/02/09 10:45:56;;;;;;;3.70;1.73;;;10.20;65.10;;;;;;6120170;23;20496;-70
2023/02/09 10:48:26;;;;;;;9.30;4.07;;;10.30;64.20;;;;;;6117846;23;20361;-69
2023/02/09 10:50:58;;;;;;;10.00;5.37;;;10.70;65.10;;;;;;6120627;23;20508;-70
2023/02/09 10:53:27;;;;;;;5.83;4.53;;;11.50;63.10;;;;;;6118195;23;20366;-70
2023/02/09 10:56:06;;;;;;;8.57;4.50;;;11.80;61.40;;;;;;6121801;23;20465;-70
2023/02/09 10:58:36;;;;;;;8.90;5.00;;;12.00;60.50;;;;;;6120656;23;20423;-70
2023/02/09 11:01:16;;;;;;;6.73;5.10;;;11.90;59.30;;;;;;6121541;23;20783;-70
2023/02/09 11:04:01;;;;;;;9.83;6.07;;;11.60;59.30;;;;;;6120287;23;20494;-70
2023/02/09 11:06:35;;;;;;;5.47;2.97;;;11.30;60.00;;;;;;6121037;23;20482;-70
2023/02/09 11:09:07;;;;;;;8.87;5.20;;;11.10;58.50;;;;;;6121298;23;20441;-70
2023/02/09 11:11:37;;;;;;;7.67;5.27;;;10.80;58.90;;;;;;6119583;23;20665;-71
2023/02/09 11:14:11;;;;;;;7.50;5.40;;;10.70;59.80;;;;;;6121208;23;20911;-70
2023/02/09 11:16:53;;;;;;;9.20;5.83;;;11.30;59.80;;;;;;6120837;23;20705;-70
2023/02/09 11:19:39;;;;;;;11.93;5.53;;;11.50;58.10;;;;;;6122092;23;20473;-70
2023/02/09 11:22:12;;;;;;;9.67;5.00;;;11.50;58.10;;;;;;6113587;23;20435;-71
2023/02/09 11:24:53;;;;;;;10.10;6.80;;;11.80;57.20;;;;;;6118954;23;20426;-70
2023/02/09 11:27:37;;;;;;;10.97;6.00;;;11.90;57.60;;;;;;6117343;23;20865;-70
2023/02/09 11:30:20;;;;;;;8.60;6.03;;;11.90;57.40;;;;;;6120293;23;20391;-71
2023/02/09 11:32:51;;;;;;;19.30;6.20;;;11.80;56.60;;;;;;6119970;23;20410;-70
2023/02/09 11:35:22;;;;;;;16.17;4.80;;;12.10;56.70;;;;;;6118491;23;20387;-70
2023/02/09 11:37:56;;;;;;;7.20;4.40;;;12.50;56.10;;;;;;6120411;23;20475;-69
2023/02/09 11:40:28;;;;;;;6.53;4.10;;;12.20;55.70;;;;;;6116967;23;20386;-70
2023/02/09 11:43:04;;;;;;;10.53;4.23;;;12.20;55.30;;;;;;6120344;23;20914;-70
2023/02/09 11:45:38;;;;;;;7.10;4.40;;;12.20;54.60;;;;;;6121005;23;20408;-71
2023/02/09 11:48:10;;;;;;;7.77;4.07;;;12.30;55.90;;;;;;6121383;23;20449;-70
2023/02/09 11:50:47;;;;;;;7.47;4.90;;;12.50;54.20;;;;;;6117275;23;20395;-69
2023/02/09 11:53:23;;;;;;;8.80;5.20;;;12.70;54.80;;;;;;6119962;23;20422;-70
2023/02/09 11:55:56;;;;;;;9.27;4.43;;;12.70;55.00;;;;;;6118656;23;20395;-70
2023/02/09 11:58:44;;;;;;;7.17;4.90;;;12.80;54.20;;;;;;6118651;23;20923;-69
2023/02/09 12:01:22;;;;;;;9.70;5.23;;;12.80;53.40;;;;;;6119004;23;20759;-70
2023/02/09 12:03:58;;;;;;;8.07;4.97;;;13.00;54.90;;;;;;6120937;23;20393;-70
2023/02/09 12:06:28;;;;;;;8.33;5.40;;;13.00;53.90;;;;;;6118861;23;20436;-70
2023/02/09 12:09:03;;;;;;;10.77;5.20;;;13.20;54.10;;;;;;6116201;23;20407;-70
2023/02/09 12:11:44;;;;;;;3.87;2.07;;;13.20;52.30;;;;;;6117851;23;20438;-70
2023/02/09 12:14:23;;;;;;;7.83;4.50;;;12.90;52.30;;;;;;6120853;23;20399;-70
2023/02/09 12:16:57;;;;;;;5.63;4.00;;;13.30;53.60;;;;;;6118587;23;20434;-70
2023/02/09 12:19:32;;;;;;;6.40;4.27;;;14.30;52.50;;;;;;6119401;23;20874;-70
2023/02/09 12:22:19;;;;;;;8.63;5.73;;;14.40;51.00;;;;;;6121120;23;20434;-70
2023/02/09 12:25:14;;;;;;;8.97;4.80;;;14.50;50.60;;;;;;6119638;23;20461;-69
2023/02/09 12:27:43;;;;;;;9.70;4.80;;;14.40;50.70;;;;;;6119811;23;20868;-69
2023/02/09 12:30:43;;;;;;;11.20;5.17;;;14.10;49.80;;;;;;6115798;23;20498;-70
2023/02/09 12:33:17;;;;;;;7.27;4.60;;;13.90;51.00;;;;;;6116876;23;20457;-70
2023/02/09 12:35:57;;;;;;;8.03;4.60;;;13.80;50.20;;;;;;6120667;23;20482;-69
2023/02/09 12:38:25;;;;;;;8.43;5.60;;;13.50;51.70;;;;;;6120238;23;20429;-70
2023/02/09 12:41:04;;;;;;;8.43;6.30;;;13.60;50.80;;;;;;6118610;23;20494;-71
2023/02/09 12:43:32;;;;;;;8.60;4.63;;;13.60;49.80;;;;;;6120081;23;20457;-68
2023/02/09 12:46:26;;;;;;;13.23;6.50;;;13.10;49.70;;;;;;6118732;23;20450;-70
2023/02/09 12:49:19;;;;;;;10.00;6.70;;;13.00;51.00;;;;;;6068975;23;20884;-70
2023/02/09 12:51:53;;;;;;;10.50;5.00;;;13.20;50.90;;;;;;6123170;23;20431;-70
2023/02/09 12:54:34;;;;;;;10.30;5.83;;;12.80;50.20;;;;;;6123919;23;20424;-70
2023/02/09 12:57:40;;;;;;;9.40;4.60;;;13.00;51.50;;;;;;6118335;23;20425;-69
2023/02/09 13:00:39;;;;;;;11.70;5.00;;;13.60;51.00;;;;;;6122541;23;20419;-70
2023/02/09 13:03:14;;;;;;;11.37;5.93;;;14.20;51.00;;;;;;6123897;23;20402;-70
2023/02/09 13:05:46;;;;;;;6.90;4.97;;;13.90;49.60;;;;;;6120019;23;20710;-70
2023/02/09 13:08:24;;;;;;;10.27;5.27;;;13.10;50.20;;;;;;6123149;23;20396;-70
2023/02/09 13:10:59;;;;;;;10.23;4.60;;;13.20;50.40;;;;;;6119329;23;20427;-70
2023/02/09 13:13:37;;;;;;;6.70;4.93;;;13.00;50.80;;;;;;6121469;23;20381;-70
2023/02/09 13:17:09;;;;;;;9.70;6.70;;;13.20;50.60;;;;;;6120134;23;20384;-70
2023/02/09 13:20:09;;;;;;;15.13;8.07;;;13.20;52.00;;;;;;6003169;23;20391;-70
2023/02/09 13:22:52;;;;;;;15.03;6.93;;;13.00;51.30;;;;;;5983640;23;20895;-68
2023/02/09 13:25:28;;;;;;;9.10;5.10;;;12.90;51.00;;;;;;6124325;23;20448;-69
2023/02/09 13:27:55;;;;;;;9.60;5.80;;;12.60;52.00;;;;;;6121811;23;20490;-70